Time;durP1;ratioP1;P1;durP2;ratioP2;P2;SDS_P1;SDS_P2;PMS_P1;PMS_P2;Temp;Humidity;BMP_temperature;BMP_pressure;BME280_temperature;BME280_humidity;BME280_pressure;Samples;Min_cycle;Max_cycle;Signal;HPM_P1;HPM_P2
2021/06/24 00:00:43;;;;;;;;;;;;;;;19.40;85.13;99714.69;5071677;28;817;-55
2021/06/24 00:03:10;;;;;;;;;;;;;;;19.45;85.16;99712.03;5071819;28;977;-55
2021/06/24 00:05:38;;;;;;;;;;;;;;;19.44;84.73;99715.31;5071622;28;854;-55
2021/06/24 00:08:05;;;;;;;;;;;;;;;19.44;84.80;99715.31;5072109;28;1889;-54
2021/06/24 00:10:31;;;;;;;;;;;;;;;19.41;85.04;99721.84;5071597;28;862;-54
2021/06/24 00:12:57;;;;;;;;;;;;;;;19.30;85.29;99717.47;5071904;28;1026;-55
2021/06/24 00:15:24;;;;;;;;;;;;;;;19.28;85.60;99722.75;5071326;28;1414;-55
2021/06/24 00:17:50;;;;;;;;;;;;;;;19.27;85.55;99721.22;5071529;28;814;-55
2021/06/24 00:20:17;;;;;;;;;;;;;;;19.26;85.66;99716.84;5071512;28;861;-55
2021/06/24 00:22:44;;;;;;;;;;;;;;;19.26;85.64;99728.03;5071256;28;984;-55
2021/06/24 00:25:10;;;;;;;;;;;;;;;19.27;85.95;99726.81;5071475;28;858;-55
2021/06/24 00:27:37;;;;;;;;;;;;;;;19.30;86.10;99737.09;5053301;28;1991;-55
2021/06/24 00:30:04;;;;;;;;;;;;;;;19.29;85.78;99726.38;5071406;28;850;-55
2021/06/24 00:32:32;;;;;;;;;;;;;;;19.25;85.93;99720.91;5071280;28;845;-55
2021/06/24 00:35:01;;;;;;;;;;;;;;;19.21;86.17;99708.28;5071365;28;901;-54
2021/06/24 00:37:29;;;;;;;;;;;;;;;19.24;86.10;99699.72;5071268;28;894;-55
2021/06/24 00:39:56;;;;;;;;;;;;;;;19.30;86.07;99697.84;5073033;28;834;-55
2021/06/24 00:42:23;;;;;;;;;;;;;;;19.29;86.11;99690.72;5076290;28;830;-54
2021/06/24 00:44:50;;;;;;;;;;;;;;;19.20;85.86;99685.06;5075709;28;838;-55
2021/06/24 00:47:17;;;;;;;;;;;;;;;19.14;86.00;99700.97;5075782;28;1923;-55
2021/06/24 00:49:43;;;;;;;;;;;;;;;19.04;86.04;99690.97;5075135;28;865;-55
2021/06/24 00:52:10;;;;;;;;;;;;;;;19.02;86.57;99693.47;5075274;28;811;-55
2021/06/24 00:54:37;;;;;;;;;;;;;;;19.05;86.76;99687.69;5075037;28;822;-55
2021/06/24 00:57:05;;;;;;;;;;;;;;;19.10;86.99;99689.91;5075088;28;830;-55
2021/06/24 00:59:33;;;;;;;;;;;;;;;19.22;87.13;99690.22;5075720;28;858;-55
2021/06/24 01:01:59;;;;;;;;;;;;;;;19.32;86.87;99686.97;5075383;28;898;-55
2021/06/24 01:04:26;;;;;;;;;;;;;;;19.40;86.57;99672.66;5075601;28;823;-55
2021/06/24 01:06:53;;;;;;;;;;;;;;;19.43;86.29;99666.88;5075035;28;1882;-55
2021/06/24 01:09:19;;;;;;;;;;;;;;;19.46;86.38;99665.97;5075141;28;818;-56
2021/06/24 01:11:46;;;;;;;;;;;;;;;19.48;86.26;99665.47;5074822;28;1010;-55
2021/06/24 01:14:13;;;;;;;;;;;;;;;19.47;85.93;99666.75;5074581;28;1201;-55
2021/06/24 01:16:40;;;;;;;;;;;;;;;19.41;85.90;99671.41;5074699;28;863;-55
2021/06/24 01:19:06;;;;;;;;;;;;;;;19.33;86.11;99660.53;5074515;28;822;-55
2021/06/24 01:21:35;;;;;;;;;;;;;;;19.26;86.25;99662.84;5074420;28;882;-56
2021/06/24 01:24:02;;;;;;;;;;;;;;;19.23;86.46;99667.34;5074925;28;839;-55
2021/06/24 01:26:29;;;;;;;;;;;;;;;19.23;86.70;99670.16;5074896;28;771;-55
2021/06/24 01:28:56;;;;;;;;;;;;;;;19.23;86.73;99675.00;5075123;28;815;-55
2021/06/24 01:31:23;;;;;;;;;;;;;;;19.25;86.91;99672.50;5074441;28;842;-55
2021/06/24 01:33:50;;;;;;;;;;;;;;;19.25;86.87;99678.09;5074377;28;877;-55
2021/06/24 01:36:17;;;;;;;;;;;;;;;19.26;86.77;99677.63;5074636;28;1156;-55
2021/06/24 01:38:43;;;;;;;;;;;;;;;19.29;86.77;99687.91;5074278;28;929;-55
2021/06/24 01:41:14;;;;;;;;;;;;;;;19.37;86.78;99679.97;5074085;28;803;-55
2021/06/24 01:43:41;;;;;;;;;;;;;;;19.40;86.45;99683.88;5074326;28;881;-55
2021/06/24 01:46:06;;;;;;;;;;;;;;;19.38;86.21;99681.53;5074201;28;853;-55
2021/06/24 01:48:33;;;;;;;;;;;;;;;19.35;86.10;99685.25;5074240;28;1878;-55
2021/06/24 01:51:01;;;;;;;;;;;;;;;19.32;86.11;99686.97;5073541;28;814;-55
2021/06/24 01:53:28;;;;;;;;;;;;;;;19.28;85.80;99668.75;5074274;28;869;-55
2021/06/24 01:55:55;;;;;;;;;;;;;;;19.18;85.69;99668.75;5056195;28;1166;-54
2021/06/24 01:58:23;;;;;;;;;;;;;;;19.09;85.54;99671.53;5074133;28;873;-55
2021/06/24 02:00:53;;;;;;;;;;;;;;;18.98;86.27;99688.78;5073957;28;826;-55
2021/06/24 02:03:20;;;;;;;;;;;;;;;18.90;86.66;99687.50;5073888;28;881;-55
2021/06/24 02:05:50;;;;;;;;;;;;;;;18.82;86.70;99686.25;5055889;28;1635;-55
2021/06/24 02:08:17;;;;;;;;;;;;;;;18.74;86.64;99682.16;5073587;28;1877;-55
2021/06/24 02:10:45;;;;;;;;;;;;;;;18.67;86.86;99690.81;5073645;28;818;-55
2021/06/24 02:13:11;;;;;;;;;;;;;;;18.60;86.91;99689.09;5074037;28;1069;-55
2021/06/24 02:15:38;;;;;;;;;;;;;;;18.55;86.94;99690.47;5073438;28;1354;-55
2021/06/24 02:18:05;;;;;;;;;;;;;;;18.52;87.13;99696.22;5073550;28;795;-55
2021/06/24 02:20:32;;;;;;;;;;;;;;;18.49;87.41;99689.50;5073488;28;819;-53
2021/06/24 02:22:59;;;;;;;;;;;;;;;18.47;87.22;99694.78;5073417;28;908;-54
2021/06/24 02:25:27;;;;;;;;;;;;;;;18.47;87.56;99689.19;5073391;28;790;-54
2021/06/24 02:27:54;;;;;;;;;;;;;;;18.47;87.44;99689.19;5073188;28;1973;-54
2021/06/24 02:30:21;;;;;;;;;;;;;;;18.46;87.63;99692.47;5073409;28;834;-53
2021/06/24 02:32:49;;;;;;;;;;;;;;;18.48;87.81;99701.19;5073238;28;956;-53
2021/06/24 02:35:16;;;;;;;;;;;;;;;18.49;87.75;99695.13;5055297;28;1584;-53
2021/06/24 02:37:42;;;;;;;;;;;;;;;18.50;87.85;99709.91;5073106;28;917;-54
2021/06/24 02:40:16;;;;;;;;;;;;;;;18.54;87.92;99714.13;5073251;28;889;-54
2021/06/24 02:42:43;;;;;;;;;;;;;;;18.55;87.81;99707.28;5073348;28;806;-54
2021/06/24 02:45:10;;;;;;;;;;;;;;;18.51;87.55;99712.22;5072958;28;863;-53
2021/06/24 02:47:37;;;;;;;;;;;;;;;18.48;87.38;99713.16;5072932;28;1890;-52
2021/06/24 02:50:05;;;;;;;;;;;;;;;18.45;87.39;99727.28;5072923;28;802;-53
2021/06/24 02:52:32;;;;;;;;;;;;;;;18.48;87.48;99735.53;5073030;28;826;-54
2021/06/24 02:54:59;;;;;;;;;;;;;;;18.54;87.88;99738.50;5072798;28;818;-53
2021/06/24 02:57:26;;;;;;;;;;;;;;;18.62;87.87;99739.78;5073027;28;815;-52
2021/06/24 02:59:53;;;;;;;;;;;;;;;18.71;87.97;99748.25;5072619;28;933;-53
2021/06/24 03:02:20;;;;;;;;;;;;;;;18.77;87.87;99748.41;5072628;28;815;-52
2021/06/24 03:04:46;;;;;;;;;;;;;;;18.85;87.71;99743.34;5072548;28;799;-51
2021/06/24 03:07:13;;;;;;;;;;;;;;;18.95;87.81;99753.34;5072426;28;1945;-52
2021/06/24 03:09:41;;;;;;;;;;;;;;;19.06;87.56;99750.13;5072762;28;802;-53
2021/06/24 03:12:08;;;;;;;;;;;;;;;19.16;87.35;99744.06;5072792;28;909;-52
2021/06/24 03:14:35;;;;;;;;;;;;;;;19.24;87.26;99749.38;5072207;28;1453;-53
2021/06/24 03:17:02;;;;;;;;;;;;;;;19.29;87.05;99752.34;5072326;28;858;-52
2021/06/24 03:19:29;;;;;;;;;;;;;;;19.35;86.94;99747.69;5072213;28;905;-54
2021/06/24 03:21:56;;;;;;;;;;;;;;;19.38;86.77;99748.78;5072260;28;803;-53
2021/06/24 03:24:22;;;;;;;;;;;;;;;19.40;86.70;99748.34;5072244;28;803;-53
2021/06/24 03:26:49;;;;;;;;;;;;;;;19.41;86.49;99753.44;5072057;28;2000;-53
2021/06/24 03:29:16;;;;;;;;;;;;;;;19.44;86.48;99754.53;5072137;28;815;-52
2021/06/24 03:31:43;;;;;;;;;;;;;;;19.48;86.60;99761.56;5072045;28;858;-54
2021/06/24 03:34:09;;;;;;;;;;;;;;;19.58;86.50;99756.75;5071995;28;943;-54
2021/06/24 03:36:36;;;;;;;;;;;;;;;19.71;86.52;99756.63;5072108;28;826;-53
2021/06/24 03:39:02;;;;;;;;;;;;;;;19.87;86.18;99752.75;5071984;28;810;-54
2021/06/24 03:41:29;;;;;;;;;;;;;;;20.09;85.98;99746.97;5071966;28;868;-53
2021/06/24 03:43:57;;;;;;;;;;;;;;;20.29;84.95;99750.06;5071873;28;874;-54
2021/06/24 03:46:25;;;;;;;;;;;;;;;20.34;84.77;99763.44;5071754;28;934;-53
2021/06/24 03:48:52;;;;;;;;;;;;;;;20.37;84.85;99767.31;5071796;28;1947;-54
2021/06/24 03:51:18;;;;;;;;;;;;;;;20.40;84.77;99757.97;5053924;28;897;-54
2021/06/24 03:53:46;;;;;;;;;;;;;;;20.45;84.90;99753.75;5071942;28;933;-54
2021/06/24 03:56:13;;;;;;;;;;;;;;;20.58;84.75;99762.78;5071682;28;906;-54
2021/06/24 03:58:39;;;;;;;;;;;;;;;20.72;84.33;99762.13;5071684;28;913;-55
2021/06/24 04:01:06;;;;;;;;;;;;;;;20.76;83.89;99750.69;5071597;28;850;-54
2021/06/24 04:03:33;;;;;;;;;;;;;;;20.82;83.40;99759.25;5071754;28;795;-54
2021/06/24 04:06:00;;;;;;;;;;;;;;;20.88;83.01;99758.13;5071603;28;806;-54
2021/06/24 04:08:27;;;;;;;;;;;;;;;20.95;82.42;99766.25;5071534;28;1881;-54
2021/06/24 04:10:54;;;;;;;;;;;;;;;21.09;81.89;99766.78;5071500;28;1137;-55
2021/06/24 04:13:21;;;;;;;;;;;;;;;21.24;81.24;99759.22;5071573;28;858;-55
2021/06/24 04:15:48;;;;;;;;;;;;;;;21.38;80.30;99766.94;5049569;28;1588;-54
2021/06/24 04:18:14;;;;;;;;;;;;;;;21.54;79.78;99762.94;5051502;28;869;-55
2021/06/24 04:20:41;;;;;;;;;;;;;;;21.74;79.26;99761.56;5051319;28;901;-54
2021/06/24 04:23:08;;;;;;;;;;;;;;;22.00;77.95;99759.78;5051478;28;842;-54
2021/06/24 04:25:36;;;;;;;;;;;;;;;22.38;77.10;99768.66;5051381;28;806;-54
2021/06/24 04:28:03;;;;;;;;;;;;;;;22.72;76.27;99763.59;5051278;28;2276;-55
2021/06/24 04:30:30;;;;;;;;;;;;;;;22.82;75.83;99763.00;5051359;28;861;-55
2021/06/24 04:32:59;;;;;;;;;;;;;;;22.80;75.12;99762.72;5051385;28;865;-54
2021/06/24 04:35:27;;;;;;;;;;;;;;;22.68;76.12;99765.84;5051254;28;854;-55
2021/06/24 04:37:54;;;;;;;;;;;;;;;22.65;76.37;99767.59;5051360;28;822;-55
2021/06/24 04:40:21;;;;;;;;;;;;;;;22.67;75.60;99767.13;5051247;28;873;-54
2021/06/24 04:42:48;;;;;;;;;;;;;;;22.73;75.58;99773.63;5051249;28;861;-55
2021/06/24 04:45:15;;;;;;;;;;;;;;;22.88;75.33;99774.38;5051281;28;842;-55
2021/06/24 04:47:43;;;;;;;;;;;;;;;23.14;74.61;99773.75;5051150;28;1890;-54
2021/06/24 04:50:10;;;;;;;;;;;;;;;23.51;72.70;99776.03;5051168;28;835;-55
2021/06/24 04:52:37;;;;;;;;;;;;;;;23.82;71.89;99776.22;5051116;28;894;-56
2021/06/24 04:55:04;;;;;;;;;;;;;;;24.41;70.48;99777.06;5051186;28;818;-55
2021/06/24 04:57:31;;;;;;;;;;;;;;;25.43;67.37;99775.81;5051357;28;893;-55
2021/06/24 04:59:58;;;;;;;;;;;;;;;26.34;64.82;99765.59;5051111;28;976;-55
2021/06/24 05:02:25;;;;;;;;;;;;;;;26.75;63.79;99768.72;5051093;28;874;-56
2021/06/24 05:04:52;;;;;;;;;;;;;;;27.26;61.93;99769.44;5051114;28;846;-56
2021/06/24 05:12:28;;;;;;;;;;;;;;;29.64;55.33;99777.84;5826840;22;1512;-56
2021/06/24 05:14:55;;;;;;;;;;;;;;;30.24;54.07;99784.56;5051059;28;829;-57
2021/06/24 05:17:21;;;;;;;;;;;;;;;30.74;51.83;99783.03;5050955;28;821;-56
2021/06/24 05:19:47;;;;;;;;;;;;;;;31.05;51.26;99787.19;5050965;28;810;-57
2021/06/24 05:22:14;;;;;;;;;;;;;;;31.30;50.77;99784.91;5051021;28;881;-57
2021/06/24 05:24:41;;;;;;;;;;;;;;;31.66;49.90;99793.03;5051110;28;849;-57
2021/06/24 05:27:08;;;;;;;;;;;;;;;31.83;49.24;99797.63;5051489;28;1909;-57
2021/06/24 05:29:35;;;;;;;;;;;;;;;32.09;48.55;99794.75;5054525;28;900;-57
2021/06/24 05:32:01;;;;;;;;;;;;;;;32.45;48.01;99801.97;5054593;28;809;-57
2021/06/24 05:34:28;;;;;;;;;;;;;;;32.91;47.24;99797.47;5054479;28;837;-57
2021/06/24 05:36:55;;;;;;;;;;;;;;;33.28;46.38;99803.31;5054379;28;818;-58
2021/06/24 05:39:21;;;;;;;;;;;;;;;33.08;45.73;99802.78;5054403;28;888;-57
2021/06/24 05:41:50;;;;;;;;;;;;;;;33.09;45.93;99800.69;5054378;28;873;-58
2021/06/24 05:44:17;;;;;;;;;;;;;;;33.19;45.94;99806.69;5054117;28;850;-58
2021/06/24 05:46:44;;;;;;;;;;;;;;;33.34;45.72;99807.56;5054220;28;1944;-58
2021/06/24 05:49:10;;;;;;;;;;;;;;;33.73;45.29;99805.69;5054164;28;814;-58
2021/06/24 05:51:37;;;;;;;;;;;;;;;34.41;43.80;99800.78;5054083;28;822;-58
2021/06/24 05:54:03;;;;;;;;;;;;;;;34.82;42.73;99807.56;5054077;28;901;-58
2021/06/24 05:56:30;;;;;;;;;;;;;;;35.05;42.08;99804.69;5054045;28;868;-58
2021/06/24 05:58:56;;;;;;;;;;;;;;;35.21;40.50;99808.34;5054145;28;839;-58
2021/06/24 06:01:23;;;;;;;;;;;;;;;35.31;40.14;99805.66;5054096;28;909;-58
2021/06/24 06:03:50;;;;;;;;;;;;;;;35.63;38.90;99801.34;5054163;28;807;-58
2021/06/24 06:06:16;;;;;;;;;;;;;;;36.09;39.22;99798.34;5054167;28;838;-58
2021/06/24 06:08:43;;;;;;;;;;;;;;;36.45;39.42;99797.19;5054224;28;1898;-58
2021/06/24 06:11:10;;;;;;;;;;;;;;;36.23;40.30;99801.72;5053777;28;979;-58
2021/06/24 06:13:36;;;;;;;;;;;;;;;36.02;40.37;99799.13;5052683;28;1273;-58
2021/06/24 06:16:02;;;;;;;;;;;;;;;36.09;39.19;99807.72;5053641;28;810;-58
2021/06/24 06:18:29;;;;;;;;;;;;;;;35.69;39.28;99808.44;5053648;28;897;-58
2021/06/24 06:20:56;;;;;;;;;;;;;;;35.58;39.79;99818.22;5053487;28;815;-58
2021/06/24 06:23:26;;;;;;;;;;;;;;;36.21;39.31;99815.94;5053526;28;861;-58
2021/06/24 06:25:53;;;;;;;;;;;;;;;36.55;38.03;99816.13;5053957;28;862;-58
2021/06/24 06:28:20;;;;;;;;;;;;;;;36.11;37.94;99818.66;5053417;28;1964;-58
2021/06/24 06:30:48;;;;;;;;;;;;;;;35.68;37.83;99821.31;5053717;28;865;-58
2021/06/24 06:33:16;;;;;;;;;;;;;;;35.64;38.69;99826.69;5053513;28;874;-58
2021/06/24 06:35:42;;;;;;;;;;;;;;;35.68;38.09;99824.19;5053335;28;856;-58
2021/06/24 06:38:09;;;;;;;;;;;;;;;35.60;38.53;99826.28;5053051;28;905;-58
2021/06/24 06:40:36;;;;;;;;;;;;;;;36.21;37.21;99825.34;5053241;28;885;-58
2021/06/24 06:43:02;;;;;;;;;;;;;;;37.09;36.37;99824.38;5053357;28;872;-58
2021/06/24 06:45:31;;;;;;;;;;;;;;;37.83;35.80;99824.78;5053629;28;814;-58
2021/06/24 06:47:58;;;;;;;;;;;;;;;38.38;34.31;99816.97;5052580;28;1945;-58
2021/06/24 06:50:25;;;;;;;;;;;;;;;38.72;34.58;99821.84;5053011;28;881;-58
2021/06/24 06:52:52;;;;;;;;;;;;;;;38.73;34.06;99817.63;5053016;28;779;-59
2021/06/24 06:55:19;;;;;;;;;;;;;;;38.85;34.04;99814.16;5052987;28;909;-59
2021/06/24 06:57:46;;;;;;;;;;;;;;;38.89;33.94;99809.47;5052862;28;888;-59
2021/06/24 07:00:13;;;;;;;;;;;;;;;39.00;33.61;99808.16;5052839;28;842;-59
2021/06/24 07:02:40;;;;;;;;;;;;;;;39.29;33.27;99811.09;5053177;28;826;-59
2021/06/24 07:05:07;;;;;;;;;;;;;;;39.45;32.13;99811.59;5052720;28;870;-59
2021/06/24 07:07:34;;;;;;;;;;;;;;;40.00;31.47;99809.16;5052640;28;1894;-58
2021/06/24 07:10:02;;;;;;;;;;;;;;;40.31;30.89;99802.72;5052489;28;949;-59
2021/06/24 07:12:27;;;;;;;;;;;;;;;40.71;30.23;99807.75;5052868;28;945;-59
2021/06/24 07:14:54;;;;;;;;;;;;;;;40.55;29.66;99806.59;5052562;28;1422;-59
2021/06/24 07:17:20;;;;;;;;;;;;;;;40.72;30.54;99803.50;5052703;28;842;-59
2021/06/24 07:19:47;;;;;;;;;;;;;;;40.80;28.11;99803.31;5052632;28;809;-59
2021/06/24 07:22:14;;;;;;;;;;;;;;;40.97;28.73;99794.38;5052959;28;794;-59
2021/06/24 07:24:40;;;;;;;;;;;;;;;41.47;28.39;99797.72;5053078;28;826;-59
2021/06/24 07:27:08;;;;;;;;;;;;;;;41.44;27.16;99805.53;5052688;28;1914;-59
2021/06/24 07:29:34;;;;;;;;;;;;;;;41.61;27.45;99796.56;5052783;28;877;-59
2021/06/24 07:32:01;;;;;;;;;;;;;;;41.83;27.10;99793.63;5052847;28;814;-59
2021/06/24 07:34:27;;;;;;;;;;;;;;;41.81;26.50;99797.13;5052611;28;836;-59
2021/06/24 07:36:54;;;;;;;;;;;;;;;41.85;27.05;99798.81;5052113;28;1093;-59
2021/06/24 07:39:21;;;;;;;;;;;;;;;41.58;27.14;99800.69;5052074;28;809;-59
2021/06/24 07:41:48;;;;;;;;;;;;;;;42.03;26.70;99794.19;5052139;28;810;-59
2021/06/24 07:44:14;;;;;;;;;;;;;;;42.32;26.17;99784.41;5052001;28;833;-59
2021/06/24 07:46:41;;;;;;;;;;;;;;;42.12;26.49;99793.34;5052029;28;810;-59
2021/06/24 07:49:07;;;;;;;;;;;;;;;40.84;28.05;99797.78;5051136;28;1878;-59
2021/06/24 07:51:34;;;;;;;;;;;;;;;41.29;28.13;99803.03;5051799;28;906;-59
2021/06/24 07:53:59;;;;;;;;;;;;;;;41.11;28.69;99796.72;5051860;28;834;-59
2021/06/24 07:56:26;;;;;;;;;;;;;;;41.37;28.57;99792.75;5051751;28;838;-59
2021/06/24 07:58:53;;;;;;;;;;;;;;;41.74;28.15;99789.41;5051749;28;873;-59
2021/06/24 08:01:20;;;;;;;;;;;;;;;42.43;27.74;99792.41;5051889;28;833;-59
2021/06/24 08:03:47;;;;;;;;;;;;;;;42.54;27.44;99794.53;5051687;28;853;-59
2021/06/24 08:06:14;;;;;;;;;;;;;;;41.75;29.31;99787.28;5051625;28;841;-59
2021/06/24 08:08:41;;;;;;;;;;;;;;;41.49;28.94;99789.91;5051555;28;1947;-59
2021/06/24 08:11:09;;;;;;;;;;;;;;;41.78;29.27;99794.72;5051401;28;1092;-59
2021/06/24 08:13:36;;;;;;;;;;;;;;;42.07;28.01;99787.91;5051265;28;1230;-59
2021/06/24 08:16:03;;;;;;;;;;;;;;;42.26;27.40;99796.41;5051595;28;912;-59
2021/06/24 08:18:30;;;;;;;;;;;;;;;42.06;27.64;99792.97;5051403;28;952;-59
2021/06/24 08:20:57;;;;;;;;;;;;;;;41.85;28.06;99790.09;5051533;28;897;-58
2021/06/24 08:23:23;;;;;;;;;;;;;;;40.88;29.70;99797.31;5051474;28;849;-59
2021/06/24 08:25:50;;;;;;;;;;;;;;;40.24;31.26;99803.63;5051511;28;853;-59
2021/06/24 08:28:17;;;;;;;;;;;;;;;41.03;28.51;99799.81;5051239;28;1913;-59
2021/06/24 08:30:44;;;;;;;;;;;;;;;41.74;27.52;99786.53;5066790;28;811;-59
2021/06/24 08:33:14;;;;;;;;;;;;;;;42.09;26.85;99785.88;5051383;28;971;-59
2021/06/24 08:35:40;;;;;;;;;;;;;;;42.33;27.41;99791.72;5051330;28;901;-59
2021/06/24 08:38:07;;;;;;;;;;;;;;;42.33;26.33;99785.91;5051331;28;887;-59
2021/06/24 08:40:34;;;;;;;;;;;;;;;42.61;26.88;99786.97;5049870;28;1215;-59
2021/06/24 08:43:01;;;;;;;;;;;;;;;42.77;25.66;99785.06;5051320;28;840;-59
2021/06/24 08:45:28;;;;;;;;;;;;;;;43.22;24.91;99787.81;5051533;28;806;-59
2021/06/24 08:47:56;;;;;;;;;;;;;;;43.31;25.66;99791.22;5051201;28;1885;-59
2021/06/24 08:50:23;;;;;;;;;;;;;;;43.32;25.63;99786.91;5051230;28;818;-59
2021/06/24 08:52:50;;;;;;;;;;;;;;;43.02;24.50;99787.34;5051160;28;818;-59
2021/06/24 08:55:18;;;;;;;;;;;;;;;42.17;25.81;99794.38;5051165;28;905;-59
2021/06/24 08:57:45;;;;;;;;;;;;;;;41.57;26.08;99793.38;5051094;28;928;-59
2021/06/24 09:00:12;;;;;;;;;;;;;;;41.24;26.69;99789.66;5051793;28;794;-59
2021/06/24 09:02:38;;;;;;;;;;;;;;;41.77;27.02;99787.41;5055006;28;865;-59
2021/06/24 09:05:07;;;;;;;;;;;;;;;42.45;26.04;99789.63;5055003;28;868;-59
2021/06/24 09:07:46;;;;;;;;;;;;;;;42.70;25.46;99789.00;5054868;28;1914;-59
2021/06/24 09:10:13;;;;;;;;;;;;;;;43.15;24.90;99782.28;5054788;28;798;-59
2021/06/24 09:13:03;;;;;;;;;;;;;;;43.17;24.77;99774.44;5053398;28;2360;-59
2021/06/24 09:15:37;;;;;;;;;;;;;;;42.69;25.62;99778.75;5054914;28;845;-59
2021/06/24 09:18:03;;;;;;;;;;;;;;;42.59;25.71;99773.09;5055040;28;814;-59
2021/06/24 09:20:32;;;;;;;;;;;;;;;42.87;25.39;99769.66;5055002;28;880;-59
2021/06/24 09:23:09;;;;;;;;;;;;;;;42.97;25.75;99771.03;5054935;28;805;-59
2021/06/24 09:25:38;;;;;;;;;;;;;;;41.67;26.46;99775.88;5054609;28;880;-59
2021/06/24 09:28:05;;;;;;;;;;;;;;;40.98;28.02;99777.75;5054469;28;1969;-59
2021/06/24 09:30:37;;;;;;;;;;;;;;;41.39;27.95;99768.94;5054423;28;877;-59
2021/06/24 09:33:11;;;;;;;;;;;;;;;42.16;26.45;99779.06;5054556;28;905;-57
2021/06/24 09:35:39;;;;;;;;;;;;;;;42.50;27.21;99776.88;5054382;28;881;-59
2021/06/24 09:38:13;;;;;;;;;;;;;;;43.12;26.33;99772.66;5054218;28;877;-57
2021/06/24 09:40:41;;;;;;;;;;;;;;;43.41;25.06;99775.13;5054365;28;873;-59
2021/06/24 09:43:12;;;;;;;;;;;;;;;43.48;25.32;99772.56;5054437;28;933;-59
2021/06/24 09:45:39;;;;;;;;;;;;;;;43.41;24.19;99760.59;5053059;28;1649;-59
2021/06/24 09:48:09;;;;;;;;;;;;;;;43.19;25.92;99765.03;5054103;28;1955;-59
2021/06/24 09:50:36;;;;;;;;;;;;;;;43.07;25.95;99759.28;5052854;28;1274;-59
2021/06/24 09:53:10;;;;;;;;;;;;;;;42.44;25.61;99753.25;5054072;28;842;-59
2021/06/24 09:55:37;;;;;;;;;;;;;;;41.76;27.17;99751.84;5054223;28;873;-59
2021/06/24 09:58:17;;;;;;;;;;;;;;;42.12;26.41;99746.13;5054274;28;881;-59
2021/06/24 10:00:51;;;;;;;;;;;;;;;42.66;28.06;99738.59;5053947;28;845;-59
2021/06/24 10:03:18;;;;;;;;;;;;;;;41.59;28.59;99741.31;5054174;28;951;-59
2021/06/24 10:05:45;;;;;;;;;;;;;;;41.56;29.93;99739.63;5053956;28;861;-59
2021/06/24 10:08:12;;;;;;;;;;;;;;;41.87;28.43;99749.56;5053726;28;1947;-59
2021/06/24 10:10:41;;;;;;;;;;;;;;;41.89;27.89;99744.69;5053739;28;940;-59
2021/06/24 10:13:08;;;;;;;;;;;;;;;42.19;26.88;99745.16;5053033;28;1328;-59
2021/06/24 10:15:36;;;;;;;;;;;;;;;40.91;28.35;99738.16;5053696;28;870;-59
2021/06/24 10:18:03;;;;;;;;;;;;;;;40.58;29.44;99747.44;5053680;28;798;-58
2021/06/24 10:20:31;;;;;;;;;;;;;;;39.77;30.06;99743.84;5052167;28;1269;-58
2021/06/24 10:23:00;;;;;;;;;;;;;;;40.64;29.62;99741.31;5053785;28;799;-58
2021/06/24 10:25:28;;;;;;;;;;;;;;;41.79;28.33;99738.22;5052149;28;1669;-58
2021/06/24 10:27:56;;;;;;;;;;;;;;;42.18;27.02;99752.31;5053372;28;1909;-59
2021/06/24 10:30:22;;;;;;;;;;;;;;;42.43;26.60;99746.69;5053717;28;830;-59
2021/06/24 10:32:59;;;;;;;;;;;;;;;42.89;25.55;99732.78;5053337;28;854;-59
2021/06/24 10:35:28;;;;;;;;;;;;;;;42.59;26.40;99731.66;5053532;28;932;-59
2021/06/24 10:37:55;;;;;;;;;;;;;;;42.63;26.52;99729.00;5053065;28;888;-59
2021/06/24 10:40:24;;;;;;;;;;;;;;;43.17;25.92;99727.16;5053297;28;881;-59
2021/06/24 10:42:52;;;;;;;;;;;;;;;43.65;25.61;99737.22;5053139;28;897;-59
2021/06/24 10:45:20;;;;;;;;;;;;;;;42.53;25.92;99739.97;5053066;28;977;-59
2021/06/24 10:47:47;;;;;;;;;;;;;;;42.67;26.05;99732.16;5053028;28;1885;-59
2021/06/24 10:50:30;;;;;;;;;;;;;;;43.67;24.79;99736.59;5052998;28;834;-59
2021/06/24 10:52:58;;;;;;;;;;;;;;;43.47;25.00;99739.06;5053187;28;865;-59
2021/06/24 10:55:40;;;;;;;;;;;;;;;43.59;24.11;99733.94;5052931;28;842;-58
2021/06/24 10:58:12;;;;;;;;;;;;;;;43.34;24.72;99726.75;5052916;28;904;-59
2021/06/24 11:00:48;;;;;;;;;;;;;;;43.23;26.06;99722.44;5053019;28;987;-59
2021/06/24 11:03:18;;;;;;;;;;;;;;;43.29;25.33;99722.06;5052814;28;825;-59
2021/06/24 11:05:46;;;;;;;;;;;;;;;43.26;25.24;99714.63;5052742;28;830;-59
2021/06/24 11:08:16;;;;;;;;;;;;;;;43.40;25.32;99723.41;5052494;28;1885;-58
2021/06/24 11:11:03;;;;;;;;;;;;;;;42.56;26.52;99721.31;5052787;28;881;-59
2021/06/24 11:13:42;;;;;;;;;;;;;;;41.24;27.14;99725.88;5052232;28;1835;-59
2021/06/24 11:16:15;;;;;;;;;;;;;;;41.73;27.47;99720.41;5052526;28;834;-59
2021/06/24 11:18:44;;;;;;;;;;;;;;;42.37;27.81;99725.19;5052544;28;834;-59
2021/06/24 11:21:12;;;;;;;;;;;;;;;43.09;26.41;99723.75;5052380;28;930;-58
2021/06/24 11:23:48;;;;;;;;;;;;;;;42.74;26.72;99725.34;5051598;28;806;-59
2021/06/24 11:26:21;;;;;;;;;;;;;;;41.38;27.92;99723.94;5052263;28;854;-59
2021/06/24 11:28:56;;;;;;;;;;;;;;;40.77;28.42;99724.19;5052181;28;1909;-59
2021/06/24 11:31:23;;;;;;;;;;;;;;;38.13;30.72;99722.69;5052511;28;905;-58
2021/06/24 11:34:00;;;;;;;;;;;;;;;38.70;30.93;99720.63;5052177;28;854;-58
2021/06/24 11:36:27;;;;;;;;;;;;;;;39.16;30.50;99713.28;5052124;28;842;-59
2021/06/24 11:38:54;;;;;;;;;;;;;;;39.09;31.38;99717.06;5052052;28;889;-59
2021/06/24 11:41:23;;;;;;;;;;;;;;;40.28;29.80;99714.19;5052158;28;1046;-58
2021/06/24 11:44:15;;;;;;;;;;;;;;;41.58;27.00;99707.13;5052040;28;881;-58
2021/06/24 11:46:52;;;;;;;;;;;;;;;40.92;28.95;99717.22;5051975;28;1949;-58
2021/06/24 12:00:27;;;;;;;;;;;;;;;41.39;27.27;99716.75;5051916;28;2003;-59
2021/06/24 12:00:44;;;;;;;;;;;;;;;37.74;33.29;99716.66;5052450;28;660;-58
2021/06/24 12:03:19;;;;;;;;;;;;;;;36.77;35.11;99713.66;5051667;28;929;-58
2021/06/24 12:05:50;;;;;;;;;;;;;;;37.51;34.00;99704.63;5051731;28;886;-58
2021/06/24 12:08:24;;;;;;;;;;;;;;;39.33;32.65;99701.56;5051525;28;1882;-59
2021/06/24 12:11:02;;;;;;;;;;;;;;;40.50;30.30;99706.34;5051793;28;885;-59
2021/06/24 12:13:29;;;;;;;;;;;;;;;40.67;28.74;99699.53;5051352;28;1252;-58
2021/06/24 12:15:56;;;;;;;;;;;;;;;40.01;29.96;99692.81;5051535;28;874;-59
2021/06/24 12:18:32;;;;;;;;;;;;;;;39.58;30.84;99701.28;5051560;28;885;-58
2021/06/24 12:21:02;;;;;;;;;;;;;;;39.72;31.16;99700.78;5051541;28;827;-59
2021/06/24 12:23:29;;;;;;;;;;;;;;;40.86;29.41;99687.09;5051412;28;937;-59
2021/06/24 12:25:59;;;;;;;;;;;;;;;40.64;29.63;99692.84;5051447;28;918;-59
2021/06/24 12:28:26;;;;;;;;;;;;;;;41.13;29.25;99684.59;5051240;28;1906;-59
2021/06/24 12:30:55;;;;;;;;;;;;;;;41.06;28.85;99684.81;5051399;28;835;-59
2021/06/24 12:33:25;;;;;;;;;;;;;;;40.53;29.39;99679.06;5051624;28;806;-59
2021/06/24 12:35:51;;;;;;;;;;;;;;;39.80;30.90;99684.78;5053072;28;884;-58
2021/06/24 12:38:23;;;;;;;;;;;;;;;40.46;29.74;99680.78;5055627;28;830;-59
2021/06/24 12:41:06;;;;;;;;;;;;;;;39.50;30.48;99683.34;5055522;28;810;-59
2021/06/24 12:43:34;;;;;;;;;;;;;;;38.74;31.97;99677.63;5055612;28;865;-59
2021/06/24 12:46:01;;;;;;;;;;;;;;;38.52;32.36;99676.69;5055671;28;802;-59
2021/06/24 12:48:29;;;;;;;;;;;;;;;39.09;31.81;99670.84;5055267;28;1949;-59
2021/06/24 12:50:57;;;;;;;;;;;;;;;39.82;31.17;99669.72;5055263;28;861;-59
2021/06/24 12:53:34;;;;;;;;;;;;;;;40.42;31.07;99675.44;5055323;28;822;-59
2021/06/24 12:56:01;;;;;;;;;;;;;;;40.52;30.07;99668.84;5054199;28;880;-59
2021/06/24 12:58:28;;;;;;;;;;;;;;;40.12;30.08;99679.84;5055371;28;873;-59
2021/06/24 13:00:55;;;;;;;;;;;;;;;39.72;31.19;99668.97;5055032;28;886;-59
2021/06/24 13:03:35;;;;;;;;;;;;;;;39.89;31.66;99663.00;5055082;28;885;-59
2021/06/24 13:06:18;;;;;;;;;;;;;;;40.10;30.21;99668.13;5054869;28;881;-59
2021/06/24 13:08:54;;;;;;;;;;;;;;;39.89;30.14;99674.59;5055020;28;1943;-59
2021/06/24 13:11:22;;;;;;;;;;;;;;;39.94;30.41;99661.91;5054852;28;968;-59
2021/06/24 13:13:57;;;;;;;;;;;;;;;40.21;30.71;99670.34;5054689;28;1252;-59
2021/06/24 13:16:25;;;;;;;;;;;;;;;40.44;30.26;99669.03;5054776;28;873;-59
2021/06/24 13:18:55;;;;;;;;;;;;;;;40.15;30.13;99664.13;5055327;28;767;-59
2021/06/24 13:21:22;;;;;;;;;;;;;;;39.83;30.68;99661.78;5054829;28;853;-59
2021/06/24 13:23:49;;;;;;;;;;;;;;;39.82;30.65;99661.03;5054711;28;794;-59